sensor_id;sensor_type;location;lat;lon;timestamp;pressure;altitude;pressure_sealevel;temperature;humidity
4273;BME280;63887;53.656;9.810;2023-02-28T00:01:25;103230.13;;;2.93;77.93
4273;BME280;63887;53.656;9.810;2023-02-28T00:03:53;103230.94;;;2.91;78.49
4273;BME280;63887;53.656;9.810;2023-02-28T00:06:20;103223.97;;;2.87;80.15
4273;BME280;63887;53.656;9.810;2023-02-28T00:08:47;103230.00;;;2.86;79.31
4273;BME280;63887;53.656;9.810;2023-02-28T00:11:15;103230.97;;;2.92;78.50
4273;BME280;63887;53.656;9.810;2023-02-28T00:13:43;103233.59;;;2.95;77.71
4273;BME280;63887;53.656;9.810;2023-02-28T00:16:13;103233.72;;;3.02;76.11
4273;BME280;63887;53.656;9.810;2023-02-28T00:18:41;103229.66;;;3.17;77.41
4273;BME280;63887;53.656;9.810;2023-02-28T00:21:09;103223.59;;;3.17;77.81
4273;BME280;63887;53.656;9.810;2023-02-28T00:23:35;103226.78;;;3.01;78.61
4273;BME280;63887;53.656;9.810;2023-02-28T00:26:03;103226.69;;;2.94;78.85
4273;BME280;63887;53.656;9.810;2023-02-28T00:28:29;103223.22;;;2.95;78.59
4273;BME280;63887;53.656;9.810;2023-02-28T00:30:56;103229.44;;;3.04;76.01
4273;BME280;63887;53.656;9.810;2023-02-28T00:33:25;103222.69;;;3.15;76.28
4273;BME280;63887;53.656;9.810;2023-02-28T00:35:51;103230.28;;;3.03;77.65
4273;BME280;63887;53.656;9.810;2023-02-28T00:38:19;103231.03;;;2.97;77.95
4273;BME280;63887;53.656;9.810;2023-02-28T00:40:45;103237.91;;;2.93;77.30
4273;BME280;63887;53.656;9.810;2023-02-28T00:43:12;103241.19;;;2.83;79.58
4273;BME280;63887;53.656;9.810;2023-02-28T00:45:38;103230.84;;;2.85;79.57
4273;BME280;63887;53.656;9.810;2023-02-28T00:48:05;103237.84;;;2.90;78.53
4273;BME280;63887;53.656;9.810;2023-02-28T00:50:32;103244.94;;;3.01;77.42
4273;BME280;63887;53.656;9.810;2023-02-28T00:52:58;103242.22;;;2.94;77.97
4273;BME280;63887;53.656;9.810;2023-02-28T00:55:26;103240.06;;;3.20;77.61
4273;BME280;63887;53.656;9.810;2023-02-28T00:57:52;103230.75;;;3.33;76.40
4273;BME280;63887;53.656;9.810;2023-02-28T01:00:19;103246.59;;;2.97;78.40
4273;BME280;63887;53.656;9.810;2023-02-28T01:02:45;103242.13;;;2.88;77.59
4273;BME280;63887;53.656;9.810;2023-02-28T01:05:12;103245.38;;;2.75;79.27
4273;BME280;63887;53.656;9.810;2023-02-28T01:07:38;103248.75;;;2.71;77.37
4273;BME280;63887;53.656;9.810;2023-02-28T01:10:06;103247.00;;;2.70;76.29
4273;BME280;63887;53.656;9.810;2023-02-28T01:12:33;103244.28;;;2.62;77.59
4273;BME280;63887;53.656;9.810;2023-02-28T01:15:00;103247.97;;;2.77;78.26
4273;BME280;63887;53.656;9.810;2023-02-28T01:17:26;103251.63;;;2.86;77.26
4273;BME280;63887;53.656;9.810;2023-02-28T01:19:53;103246.25;;;2.76;77.70
4273;BME280;63887;53.656;9.810;2023-02-28T01:22:20;103246.75;;;2.56;78.71
4273;BME280;63887;53.656;9.810;2023-02-28T01:24:47;103241.53;;;2.53;78.50
4273;BME280;63887;53.656;9.810;2023-02-28T01:27:13;103241.38;;;2.46;79.45
4273;BME280;63887;53.656;9.810;2023-02-28T01:29:41;103238.81;;;2.47;80.15
4273;BME280;63887;53.656;9.810;2023-02-28T01:32:08;103247.47;;;2.49;78.74
4273;BME280;63887;53.656;9.810;2023-02-28T01:34:34;103243.03;;;2.41;78.25
4273;BME280;63887;53.656;9.810;2023-02-28T01:37:01;103239.44;;;2.35;78.40
4273;BME280;63887;53.656;9.810;2023-02-28T01:39:28;103232.63;;;2.39;77.47
4273;BME280;63887;53.656;9.810;2023-02-28T01:41:55;103239.53;;;2.38;77.54
4273;BME280;63887;53.656;9.810;2023-02-28T01:47:29;103244.56;;;2.31;80.82
4273;BME280;63887;53.656;9.810;2023-02-28T01:49:57;103245.53;;;2.37;78.97
4273;BME280;63887;53.656;9.810;2023-02-28T01:52:25;103230.69;;;2.27;79.80
4273;BME280;63887;53.656;9.810;2023-02-28T01:54:55;103235.09;;;2.33;80.15
4273;BME280;63887;53.656;9.810;2023-02-28T01:57:26;103238.59;;;2.36;78.92
4273;BME280;63887;53.656;9.810;2023-02-28T01:59:57;103235.22;;;2.39;79.45
4273;BME280;63887;53.656;9.810;2023-02-28T02:02:27;103242.81;;;2.30;80.84
4273;BME280;63887;53.656;9.810;2023-02-28T02:04:55;103235.00;;;2.28;82.76
4273;BME280;63887;53.656;9.810;2023-02-28T02:07:23;103234.94;;;2.24;83.05
4273;BME280;63887;53.656;9.810;2023-02-28T02:10:00;103237.47;;;2.22;81.69
4273;BME280;63887;53.656;9.810;2023-02-28T02:12:32;103237.56;;;2.25;79.48
4273;BME280;63887;53.656;9.810;2023-02-28T02:15:08;103239.63;;;2.45;79.95
4273;BME280;63887;53.656;9.810;2023-02-28T02:17:41;103233.59;;;2.44;80.53
4273;BME280;63887;53.656;9.810;2023-02-28T02:20:38;103234.97;;;2.25;81.99
4273;BME280;63887;53.656;9.810;2023-02-28T02:26:51;103233.09;;;2.20;81.96
4273;BME280;63887;53.656;9.810;2023-02-28T02:29:37;103230.50;;;2.18;81.27
4273;BME280;63887;53.656;9.810;2023-02-28T02:32:28;103226.22;;;2.22;83.14
4273;BME280;63887;53.656;9.810;2023-02-28T02:35:11;103224.44;;;2.18;82.04
4273;BME280;63887;53.656;9.810;2023-02-28T02:37:43;103220.09;;;2.15;82.54
4273;BME280;63887;53.656;9.810;2023-02-28T02:40:16;103223.31;;;2.05;82.04
4273;BME280;63887;53.656;9.810;2023-02-28T02:42:49;103224.13;;;2.02;83.76
4273;BME280;63887;53.656;9.810;2023-02-28T02:45:21;103221.56;;;2.04;81.92
4273;BME280;63887;53.656;9.810;2023-02-28T02:47:49;103222.34;;;1.98;84.15
4273;BME280;63887;53.656;9.810;2023-02-28T02:50:22;103223.25;;;2.02;83.12
4273;BME280;63887;53.656;9.810;2023-02-28T02:52:53;103218.91;;;1.99;81.89
4273;BME280;63887;53.656;9.810;2023-02-28T02:55:22;103217.28;;;2.06;80.51
4273;BME280;63887;53.656;9.810;2023-02-28T02:57:51;103219.97;;;2.09;80.51
4273;BME280;63887;53.656;9.810;2023-02-28T03:00:26;103210.44;;;2.08;81.59
4273;BME280;63887;53.656;9.810;2023-02-28T03:02:56;103217.28;;;2.06;81.91
4273;BME280;63887;53.656;9.810;2023-02-28T03:05:26;103212.78;;;1.94;81.88
4273;BME280;63887;53.656;9.810;2023-02-28T03:07:53;103212.69;;;1.91;82.48
4273;BME280;63887;53.656;9.810;2023-02-28T03:10:32;103216.78;;;1.80;82.41
4273;BME280;63887;53.656;9.810;2023-02-28T03:13:26;103212.34;;;1.74;82.92
4273;BME280;63887;53.656;9.810;2023-02-28T03:16:09;103216.91;;;1.86;82.05
4273;BME280;63887;53.656;9.810;2023-02-28T03:18:49;103216.88;;;1.85;81.12
4273;BME280;63887;53.656;9.810;2023-02-28T03:21:24;103218.59;;;1.84;81.98
4273;BME280;63887;53.656;9.810;2023-02-28T03:23:56;103215.84;;;1.76;83.89
4273;BME280;63887;53.656;9.810;2023-02-28T03:26:26;103218.34;;;1.73;83.51
4273;BME280;63887;53.656;9.810;2023-02-28T03:28:58;103224.66;;;1.86;82.19
4273;BME280;63887;53.656;9.810;2023-02-28T03:31:30;103227.16;;;1.80;81.75
4273;BME280;63887;53.656;9.810;2023-02-28T03:34:03;103239.00;;;2.11;80.57
4273;BME280;63887;53.656;9.810;2023-02-28T03:36:35;103234.41;;;1.98;81.17
4273;BME280;63887;53.656;9.810;2023-02-28T03:39:12;103237.59;;;1.85;81.86
4273;BME280;63887;53.656;9.810;2023-02-28T03:41:43;103234.91;;;1.80;82.89
4273;BME280;63887;53.656;9.810;2023-02-28T03:44:16;103240.16;;;1.85;83.61
4273;BME280;63887;53.656;9.810;2023-02-28T03:46:46;103238.94;;;1.67;84.17
4273;BME280;63887;53.656;9.810;2023-02-28T03:49:17;103239.66;;;1.62;83.75
4273;BME280;63887;53.656;9.810;2023-02-28T03:51:47;103245.78;;;1.65;82.70
4273;BME280;63887;53.656;9.810;2023-02-28T03:54:19;103244.47;;;1.84;80.86
4273;BME280;63887;53.656;9.810;2023-02-28T03:56:51;103235.03;;;1.86;81.71
4273;BME280;63887;53.656;9.810;2023-02-28T03:59:22;103245.91;;;1.71;81.88
4273;BME280;63887;53.656;9.810;2023-02-28T04:01:50;103244.16;;;1.69;82.14
4273;BME280;63887;53.656;9.810;2023-02-28T04:04:17;103241.56;;;1.69;81.79
4273;BME280;63887;53.656;9.810;2023-02-28T04:06:45;103241.34;;;1.60;81.36
4273;BME280;63887;53.656;9.810;2023-02-28T04:09:15;103235.75;;;1.41;82.19
4273;BME280;63887;53.656;9.810;2023-02-28T04:11:44;103246.66;;;1.28;84.40
4273;BME280;63887;53.656;9.810;2023-02-28T04:14:11;103243.84;;;1.19;85.28
4273;BME280;63887;53.656;9.810;2023-02-28T04:16:39;103244.56;;;1.12;85.17
4273;BME280;63887;53.656;9.810;2023-02-28T04:19:08;103246.75;;;0.97;85.48
4273;BME280;63887;53.656;9.810;2023-02-28T04:21:36;103249.31;;;0.95;85.86
4273;BME280;63887;53.656;9.810;2023-02-28T04:24:06;103248.06;;;0.79;86.39
4273;BME280;63887;53.656;9.810;2023-02-28T04:26:34;103247.47;;;0.89;84.78
4273;BME280;63887;53.656;9.810;2023-02-28T04:29:02;103249.88;;;0.83;84.12
4273;BME280;63887;53.656;9.810;2023-02-28T04:31:29;103246.84;;;0.67;87.14
4273;BME280;63887;53.656;9.810;2023-02-28T04:33:56;103250.22;;;0.63;87.24
4273;BME280;63887;53.656;9.810;2023-02-28T04:36:23;103254.34;;;0.57;88.20
4273;BME280;63887;53.656;9.810;2023-02-28T04:38:49;103257.25;;;0.70;87.11
4273;BME280;63887;53.656;9.810;2023-02-28T04:41:18;103258.06;;;0.67;85.24
4273;BME280;63887;53.656;9.810;2023-02-28T04:43:44;103260.59;;;0.66;85.17
4273;BME280;63887;53.656;9.810;2023-02-28T04:46:11;103258.28;;;0.43;87.17
4273;BME280;63887;53.656;9.810;2023-02-28T04:48:39;103254.44;;;0.29;88.95
4273;BME280;63887;53.656;9.810;2023-02-28T04:51:07;103262.09;;;0.26;88.89
4273;BME280;63887;53.656;9.810;2023-02-28T04:53:35;103266.69;;;0.36;87.39
4273;BME280;63887;53.656;9.810;2023-02-28T04:56:02;103261.63;;;0.39;85.95
4273;BME280;63887;53.656;9.810;2023-02-28T04:58:30;103255.22;;;0.26;86.66
4273;BME280;63887;53.656;9.810;2023-02-28T05:01:02;103260.41;;;0.26;87.84
4273;BME280;63887;53.656;9.810;2023-02-28T05:03:29;103262.94;;;0.25;86.45
4273;BME280;63887;53.656;9.810;2023-02-28T05:05:55;103262.63;;;0.14;87.92
4273;BME280;63887;53.656;9.810;2023-02-28T05:08:22;103266.03;;;0.13;88.58
4273;BME280;63887;53.656;9.810;2023-02-28T05:10:48;103261.72;;;0.12;88.37
4273;BME280;63887;53.656;9.810;2023-02-28T05:13:14;103264.09;;;0.05;87.59
4273;BME280;63887;53.656;9.810;2023-02-28T05:15:42;103267.78;;;0.14;87.03
4273;BME280;63887;53.656;9.810;2023-02-28T05:18:09;103265.84;;;0.06;86.72
4273;BME280;63887;53.656;9.810;2023-02-28T05:20:35;103261.66;;;0.11;86.00
4273;BME280;63887;53.656;9.810;2023-02-28T05:23:02;103263.41;;;0.12;86.61
4273;BME280;63887;53.656;9.810;2023-02-28T05:25:29;103271.88;;;0.06;85.70
4273;BME280;63887;53.656;9.810;2023-02-28T05:27:56;103266.34;;;-0.06;87.69
4273;BME280;63887;53.656;9.810;2023-02-28T05:30:22;103267.84;;;-0.14;88.56
4273;BME280;63887;53.656;9.810;2023-02-28T05:32:51;103266.28;;;-0.09;87.61
4273;BME280;63887;53.656;9.810;2023-02-28T05:35:17;103271.97;;;-0.19;87.89
4273;BME280;63887;53.656;9.810;2023-02-28T05:37:44;103267.66;;;-0.20;87.25
4273;BME280;63887;53.656;9.810;2023-02-28T05:40:11;103270.31;;;-0.46;89.54
4273;BME280;63887;53.656;9.810;2023-02-28T05:42:38;103270.16;;;-0.50;90.08
4273;BME280;63887;53.656;9.810;2023-02-28T05:45:05;103273.91;;;-0.41;89.16
4273;BME280;63887;53.656;9.810;2023-02-28T05:47:33;103271.47;;;-0.36;88.04
4273;BME280;63887;53.656;9.810;2023-02-28T05:50:01;103274.78;;;-0.40;88.74
4273;BME280;63887;53.656;9.810;2023-02-28T05:52:27;103266.81;;;-0.48;89.12
4273;BME280;63887;53.656;9.810;2023-02-28T05:54:55;103280.44;;;-0.52;89.58
4273;BME280;63887;53.656;9.810;2023-02-28T05:57:21;103279.16;;;-0.65;89.78
4273;BME280;63887;53.656;9.810;2023-02-28T05:59:48;103281.75;;;-0.65;89.82
4273;BME280;63887;53.656;9.810;2023-02-28T06:02:16;103283.44;;;-0.65;89.25
4273;BME280;63887;53.656;9.810;2023-02-28T06:04:43;103279.94;;;-0.67;89.63
4273;BME280;63887;53.656;9.810;2023-02-28T06:07:11;103283.97;;;-0.75;89.68
4273;BME280;63887;53.656;9.810;2023-02-28T06:09:38;103287.94;;;-0.86;90.78
4273;BME280;63887;53.656;9.810;2023-02-28T06:12:06;103287.75;;;-0.91;90.77
4273;BME280;63887;53.656;9.810;2023-02-28T06:14:35;103283.59;;;-0.87;90.24
4273;BME280;63887;53.656;9.810;2023-02-28T06:17:02;103290.38;;;-0.90;90.31
4273;BME280;63887;53.656;9.810;2023-02-28T06:19:29;103288.03;;;-0.83;90.19
4273;BME280;63887;53.656;9.810;2023-02-28T06:21:56;103278.44;;;-0.87;89.72
4273;BME280;63887;53.656;9.810;2023-02-28T06:24:26;103297.34;;;-0.87;90.24
4273;BME280;63887;53.656;9.810;2023-02-28T06:26:53;103302.47;;;-0.88;89.92
4273;BME280;63887;53.656;9.810;2023-02-28T06:29:20;103296.72;;;-0.80;89.92
4273;BME280;63887;53.656;9.810;2023-02-28T06:31:47;103292.75;;;-0.70;89.79
4273;BME280;63887;53.656;9.810;2023-02-28T06:34:14;103289.34;;;-0.69;90.19
4273;BME280;63887;53.656;9.810;2023-02-28T06:36:41;103297.13;;;-0.68;89.60
4273;BME280;63887;53.656;9.810;2023-02-28T06:39:09;103304.81;;;-0.69;89.56
4273;BME280;63887;53.656;9.810;2023-02-28T06:41:36;103306.69;;;-0.64;90.19
4273;BME280;63887;53.656;9.810;2023-02-28T06:44:05;103308.31;;;-0.67;90.46
4273;BME280;63887;53.656;9.810;2023-02-28T06:46:32;103301.09;;;-0.50;89.62
4273;BME280;63887;53.656;9.810;2023-02-28T06:48:58;103308.84;;;-0.50;89.71
4273;BME280;63887;53.656;9.810;2023-02-28T06:51:25;103302.25;;;-0.42;89.06
4273;BME280;63887;53.656;9.810;2023-02-28T06:53:52;103307.44;;;-0.41;89.72
4273;BME280;63887;53.656;9.810;2023-02-28T06:56:19;103315.69;;;-0.51;90.27
4273;BME280;63887;53.656;9.810;2023-02-28T06:58:48;103314.13;;;-0.46;90.08
4273;BME280;63887;53.656;9.810;2023-02-28T07:01:15;103314.41;;;-0.10;88.46
4273;BME280;63887;53.656;9.810;2023-02-28T07:03:41;103314.56;;;-0.04;88.51
4273;BME280;63887;53.656;9.810;2023-02-28T07:06:08;103309.75;;;-0.21;88.53
4273;BME280;63887;53.656;9.810;2023-02-28T07:08:35;103311.22;;;-0.29;89.97
4273;BME280;63887;53.656;9.810;2023-02-28T07:11:03;103308.50;;;-0.34;90.38
4273;BME280;63887;53.656;9.810;2023-02-28T07:13:29;103316.78;;;-0.16;89.33
4273;BME280;63887;53.656;9.810;2023-02-28T07:15:59;103317.00;;;-0.10;88.69
4273;BME280;63887;53.656;9.810;2023-02-28T07:18:26;103314.38;;;-0.11;88.91
4273;BME280;63887;53.656;9.810;2023-02-28T07:20:52;103319.97;;;0.04;88.26
4273;BME280;63887;53.656;9.810;2023-02-28T07:23:20;103329.28;;;-0.01;88.51
4273;BME280;63887;53.656;9.810;2023-02-28T07:25:46;103322.06;;;0.16;88.36
4273;BME280;63887;53.656;9.810;2023-02-28T07:28:13;103320.59;;;0.25;87.65
4273;BME280;63887;53.656;9.810;2023-02-28T07:30:40;103319.28;;;0.10;88.94
4273;BME280;63887;53.656;9.810;2023-02-28T07:33:08;103322.25;;;0.23;87.34
4273;BME280;63887;53.656;9.810;2023-02-28T07:35:35;103317.47;;;0.36;86.74
4273;BME280;63887;53.656;9.810;2023-02-28T07:38:02;103319.28;;;0.40;86.95
4273;BME280;63887;53.656;9.810;2023-02-28T07:40:29;103326.63;;;0.56;86.46
4273;BME280;63887;53.656;9.810;2023-02-28T07:42:55;103317.84;;;0.81;84.99
4273;BME280;63887;53.656;9.810;2023-02-28T07:45:22;103317.31;;;0.93;83.74
4273;BME280;63887;53.656;9.810;2023-02-28T07:47:48;103327.88;;;1.03;82.12
4273;BME280;63887;53.656;9.810;2023-02-28T07:50:16;103329.78;;;1.09;81.12
4273;BME280;63887;53.656;9.810;2023-02-28T07:52:43;103336.25;;;1.26;80.71
4273;BME280;63887;53.656;9.810;2023-02-28T07:55:10;103328.06;;;1.44;79.54
4273;BME280;63887;53.656;9.810;2023-02-28T07:57:36;103328.38;;;1.58;79.25
4273;BME280;63887;53.656;9.810;2023-02-28T08:00:04;103339.78;;;1.64;78.62
4273;BME280;63887;53.656;9.810;2023-02-28T08:02:31;103333.31;;;1.85;77.09
4273;BME280;63887;53.656;9.810;2023-02-28T08:04:57;103331.84;;;1.96;76.90
4273;BME280;63887;53.656;9.810;2023-02-28T08:07:25;103332.25;;;2.14;75.64
4273;BME280;63887;53.656;9.810;2023-02-28T08:09:51;103327.91;;;2.13;74.83
4273;BME280;63887;53.656;9.810;2023-02-28T08:12:18;103328.25;;;2.28;72.62
4273;BME280;63887;53.656;9.810;2023-02-28T08:14:45;103334.53;;;2.39;72.13
4273;BME280;63887;53.656;9.810;2023-02-28T08:17:11;103338.94;;;2.45;72.95
4273;BME280;63887;53.656;9.810;2023-02-28T08:19:38;103338.63;;;2.74;70.24
4273;BME280;63887;53.656;9.810;2023-02-28T08:22:04;103332.72;;;2.81;69.67
4273;BME280;63887;53.656;9.810;2023-02-28T08:24:32;103334.81;;;2.53;70.45
4273;BME280;63887;53.656;9.810;2023-02-28T08:26:59;103332.94;;;2.48;72.91
4273;BME280;63887;53.656;9.810;2023-02-28T08:29:25;103335.41;;;2.42;71.37
4273;BME280;63887;53.656;9.810;2023-02-28T08:31:51;103336.59;;;2.57;71.29
4273;BME280;63887;53.656;9.810;2023-02-28T08:34:18;103336.97;;;2.77;70.85
4273;BME280;63887;53.656;9.810;2023-02-28T08:36:44;103336.22;;;2.83;70.43
4273;BME280;63887;53.656;9.810;2023-02-28T08:39:12;103333.66;;;2.84;70.51
4273;BME280;63887;53.656;9.810;2023-02-28T08:41:39;103331.97;;;2.86;71.22
4273;BME280;63887;53.656;9.810;2023-02-28T08:44:06;103330.53;;;3.02;70.36
4273;BME280;63887;53.656;9.810;2023-02-28T08:46:32;103333.22;;;3.08;70.64
4273;BME280;63887;53.656;9.810;2023-02-28T08:48:59;103344.34;;;3.01;70.87
4273;BME280;63887;53.656;9.810;2023-02-28T08:51:27;103332.94;;;2.93;71.69
4273;BME280;63887;53.656;9.810;2023-02-28T08:53:55;103338.91;;;3.37;68.46
4273;BME280;63887;53.656;9.810;2023-02-28T08:56:22;103335.34;;;3.31;68.08
4273;BME280;63887;53.656;9.810;2023-02-28T08:58:50;103330.41;;;3.47;66.87
4273;BME280;63887;53.656;9.810;2023-02-28T09:01:22;103333.03;;;3.49;66.89
4273;BME280;63887;53.656;9.810;2023-02-28T09:03:50;103335.94;;;3.69;65.72
4273;BME280;63887;53.656;9.810;2023-02-28T09:06:18;103339.53;;;3.77;65.98
4273;BME280;63887;53.656;9.810;2023-02-28T09:08:45;103338.91;;;3.95;65.90
4273;BME280;63887;53.656;9.810;2023-02-28T09:11:12;103340.41;;;3.77;66.52
4273;BME280;63887;53.656;9.810;2023-02-28T09:13:39;103344.91;;;3.91;64.74
4273;BME280;63887;53.656;9.810;2023-02-28T09:16:10;103338.97;;;3.99;63.96
4273;BME280;63887;53.656;9.810;2023-02-28T09:18:37;103342.56;;;4.09;64.47
4273;BME280;63887;53.656;9.810;2023-02-28T09:21:04;103341.72;;;4.10;64.46
4273;BME280;63887;53.656;9.810;2023-02-28T09:23:31;103341.47;;;3.90;64.32
4273;BME280;63887;53.656;9.810;2023-02-28T09:25:57;103334.50;;;3.87;64.80
4273;BME280;63887;53.656;9.810;2023-02-28T09:28:24;103344.25;;;4.05;62.51
4273;BME280;63887;53.656;9.810;2023-02-28T09:30:52;103337.53;;;4.19;61.22
4273;BME280;63887;53.656;9.810;2023-02-28T09:33:21;103340.38;;;4.39;59.76
4273;BME280;63887;53.656;9.810;2023-02-28T09:35:48;103341.28;;;4.46;58.51
4273;BME280;63887;53.656;9.810;2023-02-28T09:38:15;103343.59;;;4.20;61.17
4273;BME280;63887;53.656;9.810;2023-02-28T09:40:47;103345.63;;;4.44;59.19
4273;BME280;63887;53.656;9.810;2023-02-28T09:43:16;103348.28;;;4.47;60.35
4273;BME280;63887;53.656;9.810;2023-02-28T09:45:48;103346.41;;;4.38;61.26
4273;BME280;63887;53.656;9.810;2023-02-28T09:48:19;103343.84;;;4.41;58.06
4273;BME280;63887;53.656;9.810;2023-02-28T09:50:50;103342.88;;;4.32;60.43
4273;BME280;63887;53.656;9.810;2023-02-28T09:53:21;103345.66;;;4.47;59.51
4273;BME280;63887;53.656;9.810;2023-02-28T09:55:50;103349.91;;;4.40;58.89
4273;BME280;63887;53.656;9.810;2023-02-28T09:58:22;103345.00;;;4.63;57.22
4273;BME280;63887;53.656;9.810;2023-02-28T10:00:56;103350.06;;;4.53;59.29
4273;BME280;63887;53.656;9.810;2023-02-28T10:03:31;103356.84;;;4.40;60.71
4273;BME280;63887;53.656;9.810;2023-02-28T10:06:07;103347.56;;;4.62;57.58
4273;BME280;63887;53.656;9.810;2023-02-28T10:08:38;103350.13;;;4.59;58.35
4273;BME280;63887;53.656;9.810;2023-02-28T10:11:10;103345.69;;;4.50;59.83
4273;BME280;63887;53.656;9.810;2023-02-28T10:13:49;103346.75;;;4.67;59.18
4273;BME280;63887;53.656;9.810;2023-02-28T10:16:23;103350.06;;;4.53;60.65
4273;BME280;63887;53.656;9.810;2023-02-28T10:18:56;103351.16;;;4.74;56.21
4273;BME280;63887;53.656;9.810;2023-02-28T10:21:28;103347.44;;;4.51;58.11
4273;BME280;63887;53.656;9.810;2023-02-28T10:24:03;103344.16;;;4.66;56.33
4273;BME280;63887;53.656;9.810;2023-02-28T10:26:32;103348.50;;;4.68;56.37
4273;BME280;63887;53.656;9.810;2023-02-28T10:28:59;103346.75;;;4.66;55.75
4273;BME280;63887;53.656;9.810;2023-02-28T10:31:26;103344.44;;;4.92;55.45
4273;BME280;63887;53.656;9.810;2023-02-28T10:33:52;103345.34;;;4.98;56.28
4273;BME280;63887;53.656;9.810;2023-02-28T10:36:21;103347.81;;;4.86;55.26
4273;BME280;63887;53.656;9.810;2023-02-28T10:38:49;103347.22;;;5.12;55.02
4273;BME280;63887;53.656;9.810;2023-02-28T10:41:25;103346.09;;;4.85;56.92
4273;BME280;63887;53.656;9.810;2023-02-28T10:44:12;103350.53;;;4.94;57.47
4273;BME280;63887;53.656;9.810;2023-02-28T10:46:39;103348.84;;;5.00;55.58
4273;BME280;63887;53.656;9.810;2023-02-28T10:49:14;103346.09;;;4.88;58.17
4273;BME280;63887;53.656;9.810;2023-02-28T10:51:41;103341.88;;;4.96;55.04
4273;BME280;63887;53.656;9.810;2023-02-28T10:54:16;103351.56;;;5.14;53.67
4273;BME280;63887;53.656;9.810;2023-02-28T10:56:44;103347.94;;;4.97;54.49
4273;BME280;63887;53.656;9.810;2023-02-28T10:59:28;103349.72;;;5.01;55.36
4273;BME280;63887;53.656;9.810;2023-02-28T11:01:55;103349.97;;;5.27;53.63
4273;BME280;63887;53.656;9.810;2023-02-28T11:04:33;103353.28;;;5.11;53.00
4273;BME280;63887;53.656;9.810;2023-02-28T11:07:03;103351.53;;;5.08;53.64
4273;BME280;63887;53.656;9.810;2023-02-28T11:09:33;103346.19;;;4.94;55.08
4273;BME280;63887;53.656;9.810;2023-02-28T11:12:01;103346.94;;;4.86;55.70
4273;BME280;63887;53.656;9.810;2023-02-28T11:14:30;103346.31;;;5.06;54.90
4273;BME280;63887;53.656;9.810;2023-02-28T11:17:01;103347.13;;;5.02;55.01
4273;BME280;63887;53.656;9.810;2023-02-28T11:19:34;103342.72;;;4.94;54.50
4273;BME280;63887;53.656;9.810;2023-02-28T11:22:05;103336.50;;;4.78;56.17
4273;BME280;63887;53.656;9.810;2023-02-28T11:24:35;103339.28;;;4.99;53.37
4273;BME280;63887;53.656;9.810;2023-02-28T11:27:03;103341.78;;;4.90;55.28
4273;BME280;63887;53.656;9.810;2023-02-28T11:29:30;103336.66;;;4.95;54.87
4273;BME280;63887;53.656;9.810;2023-02-28T11:32:13;103334.34;;;5.28;53.40
4273;BME280;63887;53.656;9.810;2023-02-28T11:34:43;103330.88;;;5.26;53.03
4273;BME280;63887;53.656;9.810;2023-02-28T11:37:12;103329.25;;;5.41;52.42
4273;BME280;63887;53.656;9.810;2023-02-28T11:39:41;103326.78;;;5.56;51.04
4273;BME280;63887;53.656;9.810;2023-02-28T11:42:27;103320.69;;;5.55;50.82
4273;BME280;63887;53.656;9.810;2023-02-28T11:45:08;103317.97;;;5.40;51.27
4273;BME280;63887;53.656;9.810;2023-02-28T11:47:47;103325.06;;;5.61;51.85
4273;BME280;63887;53.656;9.810;2023-02-28T11:50:26;103317.16;;;5.47;53.33
4273;BME280;63887;53.656;9.810;2023-02-28T11:53:00;103321.31;;;5.24;53.37
4273;BME280;63887;53.656;9.810;2023-02-28T11:55:33;103304.84;;;5.26;53.82
4273;BME280;63887;53.656;9.810;2023-02-28T11:58:19;103307.50;;;5.32;53.19
4273;BME280;63887;53.656;9.810;2023-02-28T12:00:59;103299.88;;;5.57;51.90
4273;BME280;63887;53.656;9.810;2023-02-28T12:03:31;103305.00;;;5.45;52.54
4273;BME280;63887;53.656;9.810;2023-02-28T12:06:09;103289.44;;;5.55;52.50
4273;BME280;63887;53.656;9.810;2023-02-28T12:08:48;103293.78;;;5.52;53.01
4273;BME280;63887;53.656;9.810;2023-02-28T12:11:26;103290.34;;;5.59;51.80
4273;BME280;63887;53.656;9.810;2023-02-28T12:14:14;103286.00;;;5.62;51.77
4273;BME280;63887;53.656;9.810;2023-02-28T12:16:50;103294.78;;;5.80;51.19
4273;BME280;63887;53.656;9.810;2023-02-28T12:19:24;103281.75;;;5.77;49.66
4273;BME280;63887;53.656;9.810;2023-02-28T12:22:05;103277.41;;;5.73;50.02
4273;BME280;63887;53.656;9.810;2023-02-28T12:24:55;103269.53;;;5.63;51.42
4273;BME280;63887;53.656;9.810;2023-02-28T12:27:29;103265.19;;;5.62;51.45
4273;BME280;63887;53.656;9.810;2023-02-28T12:30:01;103273.19;;;5.91;50.12
4273;BME280;63887;53.656;9.810;2023-02-28T12:32:32;103267.06;;;5.85;50.25
4273;BME280;63887;53.656;9.810;2023-02-28T12:35:02;103255.72;;;5.78;49.67
4273;BME280;63887;53.656;9.810;2023-02-28T12:37:34;103254.94;;;5.90;49.94
4273;BME280;63887;53.656;9.810;2023-02-28T12:40:08;103257.44;;;5.70;51.62
4273;BME280;63887;53.656;9.810;2023-02-28T12:42:41;103248.66;;;5.51;52.54
4273;BME280;63887;53.656;9.810;2023-02-28T12:45:13;103244.16;;;5.27;53.51
4273;BME280;63887;53.656;9.810;2023-02-28T12:47:42;103240.88;;;5.60;50.28
4273;BME280;63887;53.656;9.810;2023-02-28T12:50:11;103231.31;;;5.55;51.72
4273;BME280;63887;53.656;9.810;2023-02-28T12:52:43;103234.81;;;5.63;51.63
4273;BME280;63887;53.656;9.810;2023-02-28T12:55:15;103233.06;;;5.60;52.91
4273;BME280;63887;53.656;9.810;2023-02-28T12:57:50;103229.56;;;5.54;52.90
4273;BME280;63887;53.656;9.810;2023-02-28T13:00:23;103230.47;;;5.60;52.86
4273;BME280;63887;53.656;9.810;2023-02-28T13:06:05;103234.03;;;5.78;51.88
4273;BME280;63887;53.656;9.810;2023-02-28T13:08:51;103232.28;;;5.80;51.29
4273;BME280;63887;53.656;9.810;2023-02-28T13:11:28;103225.47;;;6.02;48.47
4273;BME280;63887;53.656;9.810;2023-02-28T13:14:01;103235.09;;;6.16;48.97
4273;BME280;63887;53.656;9.810;2023-02-28T13:16:48;103217.69;;;6.06;48.75
4273;BME280;63887;53.656;9.810;2023-02-28T13:19:18;103215.84;;;5.88;49.77
4273;BME280;63887;53.656;9.810;2023-02-28T13:21:47;103209.03;;;6.18;48.71
4273;BME280;63887;53.656;9.810;2023-02-28T13:27:32;103206.44;;;6.22;46.93
4273;BME280;63887;53.656;9.810;2023-02-28T13:30:01;103206.38;;;6.04;47.58
4273;BME280;63887;53.656;9.810;2023-02-28T13:32:37;103204.72;;;6.27;45.63
4273;BME280;63887;53.656;9.810;2023-02-28T13:35:37;103200.34;;;6.22;46.88
4273;BME280;63887;53.656;9.810;2023-02-28T13:38:21;103203.84;;;6.28;45.78